createdAt,value
2023-08-03T00:01:02.583Z,32.90
2023-08-03T00:03:29.952Z,25.05
2023-08-03T00:06:03.467Z,34.67
2023-08-03T00:08:30.526Z,27.58
2023-08-03T00:11:02.128Z,29.63
2023-08-03T00:13:29.430Z,26.67
2023-08-03T00:15:56.493Z,25.10
2023-08-03T00:18:23.488Z,24.77
2023-08-03T00:20:51.733Z,25.80
2023-08-03T00:23:18.877Z,23.83
2023-08-03T00:25:45.877Z,30.63
2023-08-03T00:28:12.968Z,25.33
2023-08-03T00:30:40.156Z,23.77
2023-08-03T00:33:07.275Z,27.33
2023-08-03T00:35:34.350Z,30.85
2023-08-03T00:38:01.515Z,27.83
2023-08-03T00:40:28.494Z,20.80
2023-08-03T00:42:56.724Z,33.95
2023-08-03T00:45:24.039Z,21.23
2023-08-03T00:47:51.061Z,29.17
2023-08-03T00:50:18.246Z,28.80
2023-08-03T00:52:45.352Z,21.75
2023-08-03T00:55:12.336Z,26.63
2023-08-03T00:57:39.546Z,23.08
2023-08-03T01:00:07.504Z,31.15
2023-08-03T01:02:34.672Z,19.83
2023-08-03T01:05:01.809Z,22.08
2023-08-03T01:07:28.951Z,24.25
2023-08-03T01:09:56.992Z,21.67
2023-08-03T01:12:24.071Z,26.08
2023-08-03T01:14:51.224Z,26.40
2023-08-03T01:17:19.723Z,28.73
2023-08-03T01:19:46.717Z,27.35
2023-08-03T01:22:15.248Z,22.92
2023-08-03T01:24:42.318Z,19.05
2023-08-03T01:27:09.355Z,28.08
2023-08-03T01:29:36.510Z,18.63
2023-08-03T01:32:04.058Z,21.15
2023-08-03T01:34:31.367Z,22.02
2023-08-03T01:36:58.707Z,20.38
2023-08-03T01:39:26.174Z,29.98
2023-08-03T01:41:53.207Z,18.33
2023-08-03T01:44:29.825Z,19.23
2023-08-03T01:46:59.702Z,24.88
2023-08-03T01:49:29.604Z,23.65
2023-08-03T01:51:56.927Z,32.15
2023-08-03T01:54:23.995Z,14.85
2023-08-03T01:56:51.069Z,24.02
2023-08-03T01:59:18.142Z,25.80
2023-08-03T02:01:45.406Z,19.90
2023-08-03T02:04:12.877Z,28.98
2023-08-03T02:06:42.163Z,19.70
2023-08-03T02:09:12.018Z,21.33
2023-08-03T02:11:39.099Z,20.67
2023-08-03T02:14:07.222Z,17.70
2023-08-03T02:16:34.440Z,22.75
2023-08-03T02:19:01.519Z,18.90
2023-08-03T02:21:28.616Z,16.17
2023-08-03T02:23:55.863Z,23.95
2023-08-03T02:26:22.905Z,17.30
2023-08-03T02:28:49.922Z,15.30
2023-08-03T02:31:17.041Z,25.88
2023-08-03T02:33:44.229Z,19.52
2023-08-03T02:36:11.366Z,17.90
2023-08-03T02:38:38.421Z,16.52
2023-08-03T02:41:05.481Z,20.42
2023-08-03T02:43:32.574Z,20.27
2023-08-03T02:45:59.638Z,14.88
2023-08-03T02:48:26.689Z,23.52
2023-08-03T02:50:53.731Z,18.98
2023-08-03T02:53:20.785Z,19.25
2023-08-03T02:55:47.929Z,20.25
2023-08-03T02:58:14.944Z,21.38
2023-08-03T03:00:42.015Z,21.50
2023-08-03T03:03:10.278Z,24.70
2023-08-03T03:05:37.517Z,19.90
2023-08-03T03:08:04.745Z,18.05
2023-08-03T03:10:31.780Z,23.85
2023-08-03T03:12:58.762Z,15.07
2023-08-03T03:15:25.788Z,18.73
2023-08-03T03:17:52.996Z,15.15
2023-08-03T03:20:20.116Z,19.05
2023-08-03T03:22:47.162Z,21.25
2023-08-03T03:25:14.296Z,23.00
2023-08-03T03:27:41.311Z,17.52
2023-08-03T03:30:09.225Z,20.95
2023-08-03T03:32:36.525Z,18.73
2023-08-03T03:35:03.934Z,20.52
2023-08-03T03:37:30.960Z,21.40
2023-08-03T03:39:58.063Z,20.38
2023-08-03T03:42:25.111Z,23.35
2023-08-03T03:44:52.174Z,19.25
2023-08-03T03:47:19.309Z,18.77
2023-08-03T03:49:47.854Z,15.85
2023-08-03T03:52:15.926Z,12.70
2023-08-03T03:54:43.028Z,23.02
2023-08-03T03:57:10.020Z,23.52
2023-08-03T03:59:37.112Z,18.38
2023-08-03T04:02:04.168Z,19.25
2023-08-03T04:04:32.700Z,13.98
2023-08-03T04:07:00.257Z,17.88
2023-08-03T04:09:27.326Z,23.27
2023-08-03T04:11:54.343Z,21.00
2023-08-03T04:14:21.446Z,21.15
2023-08-03T04:16:48.646Z,14.90
2023-08-03T04:19:15.813Z,7.20
2023-08-03T04:21:43.379Z,4.63
2023-08-03T04:24:10.602Z,2.95
2023-08-03T04:26:37.601Z,4.75
2023-08-03T04:29:07.960Z,4.55
2023-08-03T04:31:34.981Z,6.55
2023-08-03T04:34:02.052Z,7.30
2023-08-03T04:36:30.366Z,4.63
2023-08-03T04:38:57.345Z,6.88
2023-08-03T04:41:24.390Z,6.43
2023-08-03T04:43:51.709Z,6.72
2023-08-03T04:46:18.685Z,6.07
2023-08-03T04:48:45.729Z,6.85
2023-08-03T04:51:12.772Z,5.35
2023-08-03T04:53:39.814Z,6.05
2023-08-03T04:56:07.015Z,6.47
2023-08-03T04:58:34.104Z,7.97
2023-08-03T05:01:01.234Z,6.38
2023-08-03T05:03:28.367Z,7.70
2023-08-03T05:05:55.379Z,9.00
2023-08-03T05:08:24.459Z,9.20
2023-08-03T05:10:51.867Z,6.32
2023-08-03T05:13:18.953Z,5.88
2023-08-03T05:15:46.794Z,13.13
2023-08-03T05:18:16.950Z,9.02
2023-08-03T05:20:44.184Z,6.05
2023-08-03T05:23:13.409Z,9.73
2023-08-03T05:25:40.940Z,11.70
2023-08-03T05:28:08.122Z,3.42
2023-08-03T05:30:35.197Z,4.90
2023-08-03T05:33:03.857Z,6.35
2023-08-03T05:35:32.031Z,8.82
2023-08-03T05:37:59.326Z,7.50
2023-08-03T05:40:26.364Z,6.88
2023-08-03T05:42:53.386Z,9.38
2023-08-03T05:45:45.821Z,8.55
2023-08-03T05:48:18.308Z,8.85
2023-08-03T05:50:49.917Z,5.78
2023-08-03T05:53:18.402Z,8.27
2023-08-03T05:56:01.065Z,8.40
2023-08-03T05:58:36.801Z,7.70
2023-08-03T06:01:04.111Z,11.65
2023-08-03T06:03:35.375Z,7.93
2023-08-03T06:06:06.098Z,13.40
2023-08-03T06:08:33.893Z,12.18
2023-08-03T06:11:04.973Z,13.20
2023-08-03T06:13:35.723Z,9.07
2023-08-03T06:16:11.251Z,7.82
2023-08-03T06:18:56.419Z,15.90
2023-08-03T06:21:29.474Z,14.38
2023-08-03T06:23:59.372Z,18.13
2023-08-03T06:26:32.523Z,15.40
2023-08-03T06:29:03.183Z,13.02
2023-08-03T06:31:41.356Z,20.40
2023-08-03T06:34:13.354Z,14.82
2023-08-03T06:36:43.838Z,15.93
2023-08-03T06:39:10.977Z,16.75
2023-08-03T06:41:38.098Z,15.20
2023-08-03T06:44:06.610Z,17.08
2023-08-03T06:46:33.931Z,19.27
2023-08-03T06:49:01.248Z,22.33
2023-08-03T06:51:28.394Z,25.48
2023-08-03T06:53:55.463Z,20.52
2023-08-03T06:56:22.478Z,21.90
2023-08-03T06:58:49.549Z,20.35
2023-08-03T07:01:16.726Z,19.02
2023-08-03T07:03:44.030Z,21.67
2023-08-03T07:06:11.335Z,19.02
2023-08-03T07:08:38.574Z,21.40
2023-08-03T07:11:05.654Z,17.42
2023-08-03T07:13:32.700Z,17.20
2023-08-03T07:16:10.453Z,30.70
2023-08-03T07:18:37.759Z,18.75
2023-08-03T07:21:06.373Z,15.95
2023-08-03T07:23:34.451Z,20.80
2023-08-03T07:26:01.597Z,16.75
2023-08-03T07:28:28.779Z,14.75
2023-08-03T07:30:57.260Z,16.38
2023-08-03T07:33:24.320Z,14.50
2023-08-03T07:35:51.258Z,20.02
2023-08-03T07:38:18.346Z,19.17
2023-08-03T07:40:45.300Z,18.67
2023-08-03T07:43:12.257Z,17.65
2023-08-03T07:48:10.263Z,11.20
2023-08-03T07:50:37.261Z,17.65
2023-08-03T07:53:05.784Z,16.17
2023-08-03T07:55:35.875Z,15.07
2023-08-03T07:58:02.962Z,12.63
2023-08-03T08:00:30.069Z,15.07
2023-08-03T08:02:57.246Z,18.70
2023-08-03T08:05:24.833Z,18.95
2023-08-03T08:07:54.809Z,22.45
2023-08-03T08:10:21.965Z,13.90
2023-08-03T08:12:49.786Z,14.65
2023-08-03T08:15:17.453Z,15.25
2023-08-03T08:18:01.823Z,16.55
2023-08-03T08:20:28.968Z,14.50
2023-08-03T08:22:55.996Z,13.65
2023-08-03T08:25:23.218Z,16.27
2023-08-03T08:27:50.473Z,14.02
2023-08-03T08:30:17.804Z,18.90
2023-08-03T08:32:45.942Z,17.48
2023-08-03T08:35:12.969Z,11.77
2023-08-03T08:37:40.061Z,11.00
2023-08-03T08:40:13.810Z,16.77
2023-08-03T08:42:41.304Z,14.10
2023-08-03T08:45:11.949Z,13.63
2023-08-03T08:47:39.788Z,14.15
2023-08-03T08:56:03.731Z,16.65
2023-08-03T09:00:48.720Z,13.77
2023-08-03T09:03:16.999Z,13.52
2023-08-03T09:08:18.052Z,22.08
2023-08-03T09:10:56.840Z,12.73
2023-08-03T09:13:30.508Z,15.90
2023-08-03T09:16:00.755Z,10.70
2023-08-03T09:18:31.042Z,10.43
2023-08-03T09:28:55.352Z,11.80
2023-08-03T09:34:01.248Z,10.13
2023-08-03T09:36:31.951Z,10.88
2023-08-03T09:44:18.173Z,20.40
2023-08-03T09:46:49.179Z,14.88
2023-08-03T09:49:16.638Z,14.05
2023-08-03T09:57:43.950Z,11.90
2023-08-03T10:00:15.031Z,12.63
2023-08-03T10:03:14.201Z,10.25
2023-08-03T10:06:10.329Z,12.68
2023-08-03T10:08:58.561Z,9.15
2023-08-03T10:11:33.282Z,11.05
2023-08-03T10:14:05.948Z,9.32
2023-08-03T10:16:34.792Z,14.55
2023-08-03T10:19:04.041Z,8.27
2023-08-03T10:21:32.134Z,6.63
2023-08-03T10:24:17.721Z,8.88
2023-08-03T10:26:51.425Z,10.10
2023-08-03T10:30:02.386Z,13.98
2023-08-03T10:32:29.790Z,11.00
2023-08-03T10:35:36.708Z,10.35
2023-08-03T10:38:03.910Z,7.22
2023-08-03T10:40:30.916Z,14.43
2023-08-03T10:43:24.352Z,13.93
2023-08-03T10:45:51.486Z,12.43
2023-08-03T10:48:42.362Z,15.95
2023-08-03T10:51:09.524Z,12.38
2023-08-03T10:53:36.529Z,7.15
2023-08-03T10:56:11.104Z,4.50
2023-08-03T10:58:50.098Z,6.25
2023-08-03T11:01:25.214Z,6.25
2023-08-03T11:03:52.727Z,5.03
2023-08-03T11:06:20.004Z,7.45
2023-08-03T11:08:47.355Z,7.60
2023-08-03T11:11:23.016Z,7.53
2023-08-03T11:13:51.379Z,7.20
2023-08-03T11:16:22.136Z,8.30
2023-08-03T11:18:50.020Z,10.07
2023-08-03T11:21:17.387Z,10.27
2023-08-03T11:23:44.654Z,9.98
2023-08-03T11:26:12.651Z,9.20
2023-08-03T11:28:44.945Z,12.63
2023-08-03T11:31:24.236Z,11.32
2023-08-03T11:33:54.752Z,8.00
2023-08-03T11:36:24.387Z,14.40
2023-08-03T11:38:53.069Z,9.57
2023-08-03T11:41:32.579Z,11.13
2023-08-03T11:44:00.897Z,9.93
2023-08-03T11:46:29.432Z,16.50
2023-08-03T11:49:02.691Z,9.05
2023-08-03T11:51:38.211Z,11.73
2023-08-03T11:54:07.302Z,8.25
2023-08-03T11:56:43.706Z,11.25
2023-08-03T11:59:13.028Z,15.13
2023-08-03T12:01:51.667Z,10.65
2023-08-03T12:04:22.106Z,9.55
2023-08-03T12:06:53.760Z,9.57
2023-08-03T12:09:27.608Z,14.25
2023-08-03T12:12:06.224Z,7.78
2023-08-03T12:14:34.723Z,10.52
2023-08-03T12:19:35.177Z,14.15
2023-08-03T12:22:06.388Z,13.57
2023-08-03T12:24:34.253Z,9.98
2023-08-03T12:27:09.448Z,11.30
2023-08-03T12:32:09.560Z,8.20
2023-08-03T12:34:36.610Z,10.05
2023-08-03T12:37:03.773Z,12.70
2023-08-03T12:39:30.963Z,13.50
2023-08-03T12:41:58.036Z,7.72
2023-08-03T12:44:27.485Z,12.00
2023-08-03T12:46:54.678Z,9.75
2023-08-03T12:49:22.373Z,13.30
2023-08-03T12:51:49.544Z,12.57
2023-08-03T12:54:16.854Z,8.05
2023-08-03T12:56:47.750Z,13.57
2023-08-03T12:59:15.075Z,8.45
2023-08-03T13:01:42.225Z,13.30
2023-08-03T13:04:09.334Z,10.30
2023-08-03T13:06:36.345Z,11.70
2023-08-03T13:09:03.426Z,9.20
2023-08-03T13:11:30.559Z,11.05
2023-08-03T13:13:57.739Z,13.30
2023-08-03T13:16:26.668Z,6.68
2023-08-03T13:18:53.919Z,6.45
2023-08-03T13:21:22.902Z,4.35
2023-08-03T13:23:50.513Z,6.93
2023-08-03T13:26:17.749Z,6.63
2023-08-03T13:28:47.469Z,6.63
2023-08-03T13:31:14.830Z,5.35
2023-08-03T13:33:42.069Z,8.10
2023-08-03T13:36:09.105Z,6.93
2023-08-03T13:38:36.137Z,7.55
2023-08-03T13:41:06.684Z,13.30
2023-08-03T13:43:35.308Z,10.85
2023-08-03T13:46:02.609Z,7.90
2023-08-03T13:48:29.848Z,5.38
2023-08-03T13:51:00.075Z,7.95
2023-08-03T13:53:27.780Z,10.65
2023-08-03T13:55:54.874Z,8.32
2023-08-03T14:00:52.560Z,11.38
2023-08-03T14:03:35.044Z,17.65
2023-08-03T14:09:12.098Z,14.70
2023-08-03T14:11:20.590Z,12.50
2023-08-03T14:18:49.217Z,12.80
2023-08-03T14:21:49.542Z,13.93
2023-08-03T14:24:09.742Z,15.55
2023-08-03T14:26:37.030Z,13.38
2023-08-03T14:29:04.986Z,15.50
2023-08-03T14:31:33.198Z,10.65
2023-08-03T14:34:00.665Z,11.77
2023-08-03T14:36:27.985Z,16.65
2023-08-03T14:38:58.190Z,10.95
2023-08-03T14:41:27.403Z,13.40
2023-08-03T14:44:04.476Z,19.70
2023-08-03T14:46:32.444Z,16.80
2023-08-03T14:49:01.257Z,16.27
2023-08-03T14:54:10.256Z,19.45
2023-08-03T14:56:37.616Z,17.92
2023-08-03T14:59:05.303Z,14.25
2023-08-03T15:01:40.540Z,18.20
2023-08-03T15:04:08.445Z,18.42
2023-08-03T15:09:07.550Z,17.00
2023-08-03T15:11:35.124Z,18.38
2023-08-03T15:14:04.006Z,17.13
2023-08-03T15:16:35.932Z,13.50
2023-08-03T15:21:36.920Z,18.48
2023-08-03T15:24:08.968Z,11.25
2023-08-03T15:26:54.481Z,11.70
2023-08-03T15:29:53.746Z,19.27
2023-08-03T15:34:53.931Z,10.57
2023-08-03T15:37:23.480Z,11.48
2023-08-03T15:39:54.595Z,12.02
2023-08-03T15:42:39.682Z,13.25
2023-08-03T15:45:16.305Z,12.95
2023-08-03T15:48:30.232Z,16.23
2023-08-03T15:50:36.667Z,17.40
2023-08-03T15:53:27.264Z,10.95
2023-08-03T15:58:47.709Z,14.57
2023-08-03T16:01:20.436Z,11.68
2023-08-03T16:04:02.575Z,18.92
2023-08-03T16:06:32.500Z,13.35
2023-08-03T16:09:02.350Z,13.77
2023-08-03T16:11:40.453Z,16.70
2023-08-03T16:14:23.578Z,13.00
2023-08-03T16:16:53.085Z,11.02
2023-08-03T16:19:23.593Z,13.38
2023-08-03T16:21:51.049Z,9.85
2023-08-03T16:24:21.929Z,13.18
2023-08-03T16:26:51.269Z,9.73
2023-08-03T16:29:20.761Z,7.22
2023-08-03T16:34:27.432Z,11.63
2023-08-03T16:36:55.541Z,6.88
2023-08-03T16:39:31.993Z,14.55
2023-08-03T16:41:59.207Z,12.77
2023-08-03T16:44:28.390Z,13.77
2023-08-03T16:46:56.351Z,12.60
2023-08-03T16:49:25.578Z,10.93
2023-08-03T16:52:03.120Z,13.88
2023-08-03T16:54:30.598Z,16.48
2023-08-03T16:57:00.236Z,12.18
2023-08-03T16:59:32.300Z,18.25
2023-08-03T17:02:02.915Z,10.73
2023-08-03T17:04:30.667Z,9.43
2023-08-03T17:07:00.680Z,15.50
2023-08-03T17:09:32.723Z,8.90
2023-08-03T17:12:04.890Z,17.67
2023-08-03T17:14:34.995Z,11.05
2023-08-03T17:17:14.229Z,13.13
2023-08-03T17:19:42.203Z,12.20
2023-08-03T17:22:21.435Z,13.57
2023-08-03T17:25:00.924Z,11.90
2023-08-03T17:27:28.123Z,12.55
2023-08-03T17:29:58.320Z,16.75
2023-08-03T17:32:26.180Z,12.07
2023-08-03T17:34:57.490Z,12.05
2023-08-03T17:37:26.210Z,10.95
2023-08-03T17:39:54.323Z,17.40
2023-08-03T17:42:21.533Z,12.52
2023-08-03T17:44:48.693Z,8.40
2023-08-03T17:47:16.299Z,14.50
2023-08-03T17:49:44.508Z,12.80
2023-08-03T17:52:26.596Z,16.50
2023-08-03T17:54:53.839Z,12.20
2023-08-03T17:57:21.009Z,11.88
2023-08-03T17:59:48.646Z,15.98
2023-08-03T18:02:17.141Z,11.63
2023-08-03T18:04:48.033Z,9.43
2023-08-03T18:07:16.782Z,13.82
2023-08-03T18:09:44.245Z,16.27
2023-08-03T18:12:11.485Z,9.10
2023-08-03T18:14:40.000Z,13.30
2023-08-03T18:17:07.447Z,13.82
2023-08-03T18:19:46.251Z,11.90
2023-08-03T18:22:17.217Z,12.95
2023-08-03T18:24:59.236Z,13.88
2023-08-03T18:31:56.214Z,16.65
2023-08-03T18:33:52.795Z,9.15
2023-08-03T18:36:28.446Z,14.00
2023-08-03T18:43:05.400Z,16.15
2023-08-03T18:45:56.471Z,12.15
2023-08-03T18:49:23.588Z,15.93
2023-08-03T21:14:09.266Z,11.10
2023-08-03T21:17:04.466Z,13.57
2023-08-03T21:19:34.191Z,9.23
2023-08-03T21:22:18.486Z,17.98
2023-08-03T21:25:12.574Z,13.32
2023-08-03T21:27:43.662Z,12.98
2023-08-03T21:30:30.274Z,13.13
2023-08-03T21:44:02.735Z,12.05
